KSWF/SWF METAR and TAF weather

Enter ICAO airport designator
Station Type Date Time Source
KSWF METAR 2019/04/18 21:45 UTC NOAA

KSWF 182145Z 12006KT 6SM BR OVC005 13/12 A2994


Station Type Date Time Source
KSWF Decoded METAR 2019/04/18 21:45 UTC NOAA

Newburgh / Stewart, NY, United States (KSWF) 41-30N 074-06W
Apr 18, 2019 - 05:45 PM EDT / 2019.04.18 2145 UTC
Wind: from the ESE (120 degrees) at 7 MPH (6 KT):0
Visibility: 6 mile(s):0
Sky conditions: overcast
Weather: mist
Temperature: 55 F (13 C)
Dew Point: 53 F (12 C)
Relative Humidity: 93%
Pressure (altimeter): 29.94 in. Hg (1013 hPa)
ob: KSWF 182145Z 12006KT 6SM BR OVC005 13/12 A2994
cycle: 22

Station Type Date Time Source
KSWF TAF 2019/04/18 21:24 UTC NOAA

TAF
AMD KSWF 182120Z 1821/1924 13008KT 6SM BR OVC005
FM182200 14008KT P6SM SCT006 BKN100
FM190000 17010KT P6SM FEW040 BKN150
FM191000 24010KT P6SM BKN040
FM191200 18015KT P6SM BKN015 PROB30 1912/1918 -SHRA
FM191800 18016G25KT 4SM HZ OVC007 WS020/21045KT PROB30 1918/1923 -SHRA
AMD NOT SKED

Example: see airport list